ペトロパブロフスク・カムチャツキー の空港の天気 - METARとTAF

ペトロパブロフスク・カムチャツキー空港 ( UHPP / PKC ) - ロシア ペトロパブロフスク・カムチャツキー
飛行場実況気象(Metar)
観測時間01/22 04:00 MAGT (01/21 17:00 UTC)
風向・風速東 3m/s
視程10km以上
天気現象
なし
気温-6℃
湿度58%
気圧998hPa
METARUHPP 211700Z 09003MPS 9999 NSC M06/M13 Q0998 R34L/850233 NOSIG RMK QFE745/0993
過去の天気等 Google飛行場航空写真 Wunderground天気予報

過去48時間のMETAR

飛行場予報(TAF)
発表時間: 1/22 03:38 MAGT (1/21 16:38 UTC)
予報対象時間: 22日5時 MAGT ~ 23日11時 MAGT
風向・風速南南東 3m/s 瞬間風速 12m/s
視程10km以上
全天の8割程度の積乱雲 雲底高度 910m
全天を覆う雲 雲底高度 1,220m
22日21時 MAGT ~ 23日8時 MAGT に一時的に
風向・風速西 3m/s 瞬間風速 12m/s
TAF UHPP 211638Z 2118/2224 16003G12MPS 9999 BKN030CB OVC040
TEMPO 2210/2221 28003G12MPS